جدة, السعودية

08:21 PM AST on لبراêر 28, 2015 (GMT +0300)
Jeddah | Change Station
CLOSE
Current Station
Personal Weather Stations
Location: Jiddah, MAKKAH PROVINCE
Elevation: 128 ft
Nearby Weather Stations

Elev 128 ft 21.72 °N, 39.21 °E | Updated 5 minutes ago

Clear
صافية
81.3 °F
Feels Like 84 °F
N
2.0
ريح متغير ريح from NW
Gusts 4.0 mph

هذا اليوم
High -- | Low -- °F
--% Chance of Precip.
Yesterday
High -- | Low -- °F
Precip. -- في
6:45 AM 6:26 PM
الأحدب الأول, 79% visible
الضغط 29.86 في
وضوح الرؤية -9999.0 أميال
سحابات
مؤشر الحرارة 84 °F
نقطة الندى 67 °F
الرطوبة 64%
Rainfall 0.00 في
عمق الثلج Not available.
الأشعة فوق البنفسجية 0.0 out of 12
Pollen Not available.
جودة الهواء Not available.
Flu Activity Not available.
METAR OEJN 281700Z 28002KT CAVOK 27/19 Q1011 NOSIG

More Conditions Fewer Conditions

الضغط 29.86 في
وضوح الرؤية -9999.0 أميال
سحابات
مؤشر الحرارة 84 °F
نقطة الندى 67 °F
الرطوبة 64%
Rainfall 0.00 في
عمق الثلج Not available.
الأشعة فوق البنفسجية 0.0 out of 12
Pollen Not available.
جودة الهواء Not available.
Flu Activity Not available.
METAR OEJN 281700Z 28002KT CAVOK 27/19 Q1011 NOSIG

More Conditions Fewer Conditions

10-Day Weather Forecast

Almanac

علم الفلك

Feb. 28, 2015 Rise Set
Actual Time
Civil Twilight
Nautical Twilight
Astronomical Twilight
قمر
Length Of Visible Light
طول الیوم
Tomorrow will be .
, % of the Moon is Illuminated

Today's Extremes

Country Highs Country Lows

Community

WunderPhotos

Upload Photos

1,801,101 photos uploaded!

WunderBlogs® & News

Nearby

جودة الهواء

  جودة الهواء AQ Index Pollutant
Not available.

عمق الثلج

Station Depth Elevation

Earthquake Activity

City Distance Mag. Time & Date
Minimum magnitude displayed is 2.5.

Coastal Water Temperatures

مكان درجات الحرارة

Nearby Weather Stations